createdAt,value
2018-03-25T00:00:17.973Z,78.09
2018-03-25T00:01:17.969Z,78.38
2018-03-25T00:02:17.948Z,78.47
2018-03-25T00:03:17.944Z,78.28
2018-03-25T00:04:17.935Z,78.00
2018-03-25T00:05:17.927Z,78.75
2018-03-25T00:06:17.953Z,78.56
2018-03-25T00:07:17.932Z,78.56
2018-03-25T00:08:17.906Z,77.90
2018-03-25T00:09:17.899Z,77.43
2018-03-25T00:10:17.892Z,77.52
2018-03-25T00:11:17.884Z,78.28
2018-03-25T00:12:17.877Z,78.38
2018-03-25T00:13:17.980Z,78.38
2018-03-25T00:14:17.863Z,78.95
2018-03-25T00:15:17.869Z,78.66
2018-03-25T00:16:17.849Z,79.23
2018-03-25T00:17:17.841Z,79.14
2018-03-25T00:18:17.846Z,78.75
2018-03-25T00:19:17.830Z,79.23
2018-03-25T00:20:17.820Z,79.14
2018-03-25T00:21:17.813Z,79.14
2018-03-25T00:22:17.831Z,79.23
2018-03-25T00:23:17.817Z,78.85
2018-03-25T00:24:17.792Z,79.52
2018-03-25T00:25:17.785Z,79.23
2018-03-25T00:26:17.779Z,79.04
2018-03-25T00:27:17.779Z,79.52
2018-03-25T00:28:17.764Z,79.42
2018-03-25T00:29:17.765Z,79.33
2018-03-25T00:30:17.760Z,78.75
2018-03-25T00:31:17.753Z,79.42
2018-03-25T00:32:17.738Z,79.42
2018-03-25T00:33:17.760Z,79.71
2018-03-25T00:34:17.722Z,79.14
2018-03-25T00:35:17.730Z,79.33
2018-03-25T00:36:17.728Z,78.95
2018-03-25T00:37:17.722Z,79.80
2018-03-25T00:38:17.692Z,80.08
2018-03-25T00:39:17.689Z,79.90
2018-03-25T00:40:17.680Z,79.42
2018-03-25T00:41:17.681Z,79.42
2018-03-25T00:42:17.668Z,79.14
2018-03-25T00:43:17.656Z,78.85
2018-03-25T00:44:17.649Z,78.75
2018-03-25T00:45:17.643Z,78.95
2018-03-25T00:46:17.636Z,79.52
2018-03-25T00:47:17.629Z,79.14
2018-03-25T00:48:17.621Z,78.85
2018-03-25T00:49:17.619Z,79.14
2018-03-25T00:50:17.645Z,79.23
2018-03-25T00:51:17.599Z,78.85
2018-03-25T00:52:17.592Z,79.42
2018-03-25T00:53:17.586Z,80.27
2018-03-25T00:54:17.577Z,79.80
2018-03-25T00:55:17.574Z,79.90
2018-03-25T00:56:17.567Z,79.90
2018-03-25T00:57:17.556Z,79.99
2018-03-25T00:58:17.563Z,78.95
2018-03-25T00:59:17.562Z,78.95
2018-03-25T01:00:17.537Z,79.10
2018-03-25T01:01:17.527Z,79.04
2018-03-25T01:02:17.520Z,78.66
2018-03-25T01:03:17.516Z,79.04
2018-03-25T01:04:17.506Z,79.04
2018-03-25T01:05:17.498Z,79.52
2018-03-25T01:06:17.507Z,79.23
2018-03-25T01:07:17.484Z,78.56
2018-03-25T01:08:17.476Z,78.09
2018-03-25T01:09:17.469Z,77.33
2018-03-25T01:10:17.476Z,77.14
2018-03-25T01:11:17.455Z,77.52
2018-03-25T01:12:17.468Z,77.81
2018-03-25T01:13:17.447Z,78.09
2018-03-25T01:14:17.452Z,77.90
2018-03-25T01:15:17.430Z,77.62
2018-03-25T01:16:17.419Z,78.00
2018-03-25T01:17:17.414Z,78.00
2018-03-25T01:18:17.405Z,78.19
2018-03-25T01:19:17.397Z,77.43
2018-03-25T01:20:17.392Z,77.62
2018-03-25T01:21:17.392Z,77.62
2018-03-25T01:22:17.393Z,77.43
2018-03-25T01:23:17.369Z,77.52
2018-03-25T01:24:17.362Z,77.81
2018-03-25T01:25:17.360Z,77.90
2018-03-25T01:26:17.347Z,78.00
2018-03-25T01:27:17.339Z,77.24
2018-03-25T01:28:17.332Z,77.67
2018-03-25T01:29:17.327Z,77.11
2018-03-25T01:30:17.319Z,77.11
2018-03-25T01:31:17.310Z,77.58
2018-03-25T01:32:17.305Z,77.20
2018-03-25T01:33:17.296Z,77.11
2018-03-25T01:34:17.290Z,77.20
2018-03-25T01:35:17.283Z,77.01
2018-03-25T01:36:17.275Z,77.48
2018-03-25T01:37:17.269Z,77.96
2018-03-25T01:38:17.260Z,77.96
2018-03-25T01:39:17.252Z,78.05
2018-03-25T01:40:17.245Z,78.43
2018-03-25T01:41:17.237Z,77.86
2018-03-25T01:42:17.239Z,78.47
2018-03-25T01:43:17.221Z,78.00
2018-03-25T01:44:17.216Z,77.90
2018-03-25T01:45:17.207Z,78.38
2018-03-25T01:46:17.200Z,77.48
2018-03-25T01:47:17.192Z,77.48
2018-03-25T01:48:17.185Z,77.86
2018-03-25T01:49:17.177Z,78.15
2018-03-25T01:50:17.172Z,78.24
2018-03-25T01:51:17.162Z,78.05
2018-03-25T01:52:17.155Z,78.34
2018-03-25T01:53:17.150Z,78.62
2018-03-25T01:54:17.140Z,78.24
2018-03-25T01:55:17.131Z,78.34
2018-03-25T01:56:17.124Z,78.72
2018-03-25T01:57:17.117Z,79.00
2018-03-25T01:58:17.110Z,79.00
2018-03-25T01:59:17.102Z,78.43
2018-03-25T02:00:17.092Z,78.05
2018-03-25T02:01:17.089Z,77.96
2018-03-25T02:02:17.079Z,78.53
2018-03-25T02:03:17.071Z,79.10
2018-03-25T02:04:17.064Z,79.10
2018-03-25T02:05:17.056Z,78.43
2018-03-25T02:06:17.058Z,78.72
2018-03-25T02:07:17.040Z,79.10
2018-03-25T02:08:17.033Z,79.28
2018-03-25T02:09:17.026Z,78.72
2018-03-25T02:10:17.019Z,79.38
2018-03-25T02:11:17.014Z,79.10
2018-03-25T02:12:17.020Z,79.95
2018-03-25T02:13:16.994Z,79.85
2018-03-25T02:14:16.987Z,80.04
2018-03-25T02:15:16.978Z,80.24
2018-03-25T02:16:16.971Z,79.66
2018-03-25T02:17:16.963Z,80.14
2018-03-25T02:18:16.957Z,80.62
2018-03-25T02:19:17.047Z,81.18
2018-03-25T02:20:16.941Z,81.18
2018-03-25T02:21:16.932Z,80.62
2018-03-25T02:22:16.924Z,81.18
2018-03-25T02:23:16.958Z,80.99
2018-03-25T02:24:16.911Z,80.99
2018-03-25T02:25:16.900Z,81.81
2018-03-25T02:26:16.892Z,81.81
2018-03-25T02:27:16.887Z,81.71
2018-03-25T02:28:16.875Z,81.52
2018-03-25T02:29:16.868Z,81.62
2018-03-25T02:30:16.867Z,80.86
2018-03-25T02:31:16.853Z,80.95
2018-03-25T02:32:16.844Z,80.76
2018-03-25T02:33:16.838Z,80.76
2018-03-25T02:34:16.833Z,81.71
2018-03-25T02:35:16.822Z,81.62
2018-03-25T02:36:16.811Z,81.90
2018-03-25T02:37:16.804Z,82.18
2018-03-25T02:38:16.796Z,82.18
2018-03-25T02:39:16.787Z,82.09
2018-03-25T02:40:16.779Z,82.18
2018-03-25T02:41:16.774Z,82.28
2018-03-25T02:42:16.763Z,81.90
2018-03-25T02:43:16.754Z,81.90
2018-03-25T02:44:16.747Z,82.28
2018-03-25T02:45:16.741Z,82.37
2018-03-25T02:46:16.731Z,81.90
2018-03-25T02:47:16.723Z,81.90
2018-03-25T02:48:16.752Z,82.09
2018-03-25T02:49:16.707Z,81.99
2018-03-25T02:50:16.698Z,81.99
2018-03-25T02:51:16.691Z,82.18
2018-03-25T02:52:16.688Z,82.28
2018-03-25T02:53:16.674Z,82.47
2018-03-25T02:54:16.684Z,81.90
2018-03-25T02:55:16.657Z,81.90
2018-03-25T02:56:16.649Z,82.37
2018-03-25T02:57:16.644Z,82.09
2018-03-25T02:58:16.634Z,82.75
2018-03-25T02:59:16.625Z,82.60
2018-03-25T03:00:16.618Z,82.66
2018-03-25T03:01:16.611Z,82.75
2018-03-25T03:02:16.657Z,81.71
2018-03-25T03:03:16.595Z,81.99
2018-03-25T03:04:16.586Z,82.79
2018-03-25T03:05:16.578Z,82.04
2018-03-25T03:06:16.575Z,81.94
2018-03-25T03:07:16.575Z,82.32
2018-03-25T03:08:16.553Z,81.94
2018-03-25T03:09:16.548Z,81.66
2018-03-25T03:10:16.538Z,81.75
2018-03-25T03:11:16.530Z,81.85
2018-03-25T03:12:16.521Z,81.85
2018-03-25T03:13:16.523Z,81.75
2018-03-25T03:14:16.516Z,81.56
2018-03-25T03:15:16.499Z,81.66
2018-03-25T03:16:16.491Z,81.56
2018-03-25T03:17:16.484Z,81.62
2018-03-25T03:18:16.483Z,81.71
2018-03-25T03:19:16.466Z,81.81
2018-03-25T03:20:16.458Z,81.47
2018-03-25T03:21:16.451Z,81.66
2018-03-25T03:22:16.444Z,81.75
2018-03-25T03:23:16.436Z,81.66
2018-03-25T03:24:16.428Z,81.85
2018-03-25T03:25:16.430Z,81.66
2018-03-25T03:26:16.413Z,80.80
2018-03-25T03:27:16.406Z,80.90
2018-03-25T03:28:16.397Z,80.76
2018-03-25T03:29:16.389Z,80.95
2018-03-25T03:30:16.383Z,81.14
2018-03-25T03:31:16.385Z,81.24
2018-03-25T03:32:16.365Z,81.62
2018-03-25T03:33:16.358Z,81.71
2018-03-25T03:34:16.356Z,81.99
2018-03-25T03:35:16.341Z,81.62
2018-03-25T03:36:16.332Z,81.62
2018-03-25T03:37:16.326Z,81.43
2018-03-25T03:38:16.318Z,81.62
2018-03-25T03:39:16.309Z,81.37
2018-03-25T03:40:16.302Z,81.56
2018-03-25T03:41:16.294Z,81.09
2018-03-25T03:42:16.284Z,81.56
2018-03-25T03:43:16.281Z,81.37
2018-03-25T03:44:16.269Z,80.71
2018-03-25T03:45:16.262Z,80.14
2018-03-25T03:46:16.256Z,80.38
2018-03-25T03:47:16.248Z,80.86
2018-03-25T03:48:16.237Z,80.95
2018-03-25T03:49:16.231Z,80.95
2018-03-25T03:50:16.240Z,80.80
2018-03-25T03:51:16.211Z,80.95
2018-03-25T03:52:16.205Z,81.18
2018-03-25T03:53:16.202Z,80.99
2018-03-25T03:54:16.192Z,80.99
2018-03-25T03:55:16.181Z,80.52
2018-03-25T03:56:16.173Z,80.43
2018-03-25T03:57:16.165Z,79.66
2018-03-25T03:58:16.157Z,79.66
2018-03-25T03:59:16.150Z,79.95
2018-03-25T04:00:16.140Z,79.10
2018-03-25T04:01:16.134Z,79.19
2018-03-25T04:02:16.124Z,79.76
2018-03-25T04:03:16.116Z,80.04
2018-03-25T04:04:16.128Z,79.57
2018-03-25T04:05:16.129Z,79.91
2018-03-25T04:06:16.092Z,79.91
2018-03-25T04:07:16.084Z,80.29
2018-03-25T04:08:16.075Z,80.38
2018-03-25T04:09:16.077Z,80.00
2018-03-25T04:10:16.060Z,80.57
2018-03-25T04:11:16.051Z,80.76
2018-03-25T04:12:16.043Z,80.57
2018-03-25T04:13:16.036Z,80.38
2018-03-25T04:14:16.027Z,80.10
2018-03-25T04:15:16.018Z,80.57
2018-03-25T04:16:16.010Z,80.48
2018-03-25T04:17:16.003Z,80.57
2018-03-25T04:18:15.997Z,80.80
2018-03-25T04:19:15.986Z,80.24
2018-03-25T04:20:15.976Z,80.04
2018-03-25T04:21:15.969Z,80.33
2018-03-25T04:22:15.962Z,80.62
2018-03-25T04:23:15.954Z,80.43
2018-03-25T04:24:15.959Z,80.52
2018-03-25T04:25:15.937Z,80.04
2018-03-25T04:26:15.929Z,79.85
2018-03-25T04:27:15.920Z,79.66
2018-03-25T04:28:15.913Z,79.28
2018-03-25T04:29:15.905Z,79.19
2018-03-25T04:30:15.898Z,79.47
2018-03-25T04:31:15.888Z,79.95
2018-03-25T04:32:15.881Z,79.76
2018-03-25T04:33:15.876Z,80.04
2018-03-25T04:34:15.865Z,79.95
2018-03-25T04:35:15.865Z,80.04
2018-03-25T04:36:15.849Z,79.47
2018-03-25T04:37:15.847Z,79.38
2018-03-25T04:38:15.834Z,79.66
2018-03-25T04:39:15.826Z,79.28
2018-03-25T04:40:15.817Z,79.00
2018-03-25T04:41:15.810Z,78.91
2018-03-25T04:42:15.804Z,78.91
2018-03-25T04:43:15.794Z,78.81
2018-03-25T04:44:15.787Z,79.10
2018-03-25T04:45:15.781Z,78.34
2018-03-25T04:46:15.773Z,77.96
2018-03-25T04:47:15.765Z,77.96
2018-03-25T04:48:15.756Z,78.24
2018-03-25T04:49:15.751Z,77.96
2018-03-25T04:50:15.743Z,78.81
2018-03-25T04:51:15.734Z,78.43
2018-03-25T04:52:15.726Z,78.53
2018-03-25T04:53:15.719Z,78.81
2018-03-25T04:54:15.716Z,79.10
2018-03-25T04:55:15.704Z,79.57
2018-03-25T04:56:15.696Z,79.00
2018-03-25T04:57:15.688Z,78.62
2018-03-25T04:58:15.687Z,78.81
2018-03-25T04:59:15.691Z,78.91
2018-03-25T05:00:15.664Z,78.43
2018-03-25T05:01:15.659Z,78.53
2018-03-25T05:02:15.663Z,78.72
2018-03-25T05:03:15.642Z,78.34
2018-03-25T05:04:15.634Z,78.91
2018-03-25T05:05:15.636Z,78.81
2018-03-25T05:06:15.636Z,78.62
2018-03-25T05:07:15.613Z,78.91
2018-03-25T05:08:15.605Z,78.91
2018-03-25T05:09:15.596Z,79.00
2018-03-25T05:10:15.590Z,78.91
2018-03-25T05:11:15.583Z,79.85
2018-03-25T05:12:15.580Z,79.95
2018-03-25T05:13:15.567Z,79.76
2018-03-25T05:14:15.561Z,79.76
2018-03-25T05:15:15.553Z,79.19
2018-03-25T05:16:15.544Z,79.95
2018-03-25T05:17:15.537Z,79.95
2018-03-25T05:18:15.530Z,79.95
2018-03-25T05:19:15.526Z,79.76
2018-03-25T05:20:15.514Z,80.04
2018-03-25T05:21:15.506Z,79.76
2018-03-25T05:22:15.500Z,80.04
2018-03-25T05:23:15.491Z,79.57
2018-03-25T05:24:15.484Z,79.95
2018-03-25T05:25:15.477Z,79.47
2018-03-25T05:26:15.469Z,80.04
2018-03-25T05:27:15.462Z,79.57
2018-03-25T05:28:15.458Z,80.04
2018-03-25T05:29:15.462Z,80.04
2018-03-25T05:30:15.440Z,79.76
2018-03-25T05:31:15.437Z,80.04
2018-03-25T05:32:15.427Z,79.47
2018-03-25T05:33:15.419Z,80.14
2018-03-25T05:34:15.412Z,79.10
2018-03-25T05:35:15.402Z,79.19
2018-03-25T05:36:15.395Z,79.47
2018-03-25T05:37:15.388Z,79.28
2018-03-25T05:38:15.380Z,79.00
2018-03-25T05:39:15.373Z,79.57
2018-03-25T05:40:15.365Z,79.95
2018-03-25T05:41:15.358Z,79.10
2018-03-25T05:42:15.351Z,79.38
2018-03-25T05:43:15.344Z,79.19
2018-03-25T05:44:15.338Z,79.14
2018-03-25T05:45:15.328Z,79.04
2018-03-25T05:46:15.320Z,78.85
2018-03-25T05:47:15.323Z,78.85
2018-03-25T05:48:15.306Z,78.66
2018-03-25T05:49:15.299Z,78.24
2018-03-25T05:50:15.293Z,77.96
2018-03-25T05:51:15.284Z,78.05
2018-03-25T05:52:15.277Z,78.38
2018-03-25T05:53:15.269Z,78.09
2018-03-25T05:54:15.263Z,78.09
2018-03-25T05:55:15.255Z,77.90
2018-03-25T05:56:15.248Z,78.95
2018-03-25T05:57:15.243Z,78.81
2018-03-25T05:58:15.234Z,78.85
2018-03-25T05:59:15.227Z,78.56
2018-03-25T06:00:15.218Z,78.19
2018-03-25T06:01:15.215Z,77.90
2018-03-25T06:02:15.204Z,78.56
2018-03-25T06:03:15.206Z,78.47
2018-03-25T06:04:15.188Z,78.19
2018-03-25T06:05:15.184Z,78.09
2018-03-25T06:06:15.175Z,77.81
2018-03-25T06:07:15.166Z,77.77
2018-03-25T06:08:15.159Z,77.71
2018-03-25T06:09:15.151Z,78.19
2018-03-25T06:10:15.146Z,77.43
2018-03-25T06:11:15.138Z,77.05
2018-03-25T06:12:15.130Z,77.52
2018-03-25T06:13:15.272Z,77.52
2018-03-25T06:14:15.164Z,77.43
2018-03-25T06:15:15.107Z,77.33
2018-03-25T06:16:15.100Z,76.95
2018-03-25T06:17:15.094Z,77.05
2018-03-25T06:18:15.087Z,76.86
2018-03-25T06:19:15.079Z,76.95
2018-03-25T06:20:15.071Z,76.57
2018-03-25T06:21:15.066Z,76.10
2018-03-25T06:22:15.059Z,76.20
2018-03-25T06:23:15.051Z,76.57
2018-03-25T06:24:15.045Z,76.67
2018-03-25T06:25:15.037Z,76.67
2018-03-25T06:26:15.031Z,76.86
2018-03-25T06:27:15.023Z,76.95
2018-03-25T06:28:15.016Z,77.33
2018-03-25T06:29:15.010Z,77.05
2018-03-25T06:30:15.003Z,77.05
2018-03-25T06:31:14.996Z,76.76
2018-03-25T06:32:14.988Z,76.57
2018-03-25T06:33:14.984Z,76.57
2018-03-25T06:34:14.974Z,76.86
2018-03-25T06:35:14.970Z,77.43
2018-03-25T06:36:14.959Z,76.67
2018-03-25T06:37:14.953Z,77.24
2018-03-25T06:38:14.949Z,76.86
2018-03-25T06:39:14.956Z,76.67
2018-03-25T06:40:14.932Z,76.76
2018-03-25T06:41:14.926Z,76.86
2018-03-25T06:42:14.919Z,76.76
2018-03-25T06:43:14.910Z,76.86
2018-03-25T06:44:14.904Z,76.29
2018-03-25T06:45:14.896Z,76.48
2018-03-25T06:46:14.890Z,76.20
2018-03-25T06:47:14.902Z,76.20
2018-03-25T06:48:14.876Z,76.29
2018-03-25T06:49:14.876Z,76.57
2018-03-25T06:50:14.862Z,76.01
2018-03-25T06:51:14.854Z,76.29
2018-03-25T06:52:14.848Z,76.39
2018-03-25T06:53:14.842Z,76.29
2018-03-25T06:54:14.890Z,76.20
2018-03-25T06:55:14.827Z,76.48
2018-03-25T06:56:14.819Z,76.10
2018-03-25T06:57:14.814Z,76.10
2018-03-25T06:58:14.827Z,76.10
2018-03-25T06:59:14.826Z,76.39
2018-03-25T07:00:14.792Z,75.81
2018-03-25T07:01:14.786Z,76.29
2018-03-25T07:02:14.782Z,76.20
2018-03-25T07:03:14.771Z,76.10
2018-03-25T07:04:14.764Z,76.01
2018-03-25T07:05:14.780Z,76.39
2018-03-25T07:06:14.761Z,76.10
2018-03-25T07:07:14.742Z,76.01
2018-03-25T07:08:14.738Z,75.72
2018-03-25T07:09:14.730Z,75.95
2018-03-25T07:10:14.723Z,76.04
2018-03-25T07:11:14.715Z,75.85
2018-03-25T07:12:14.709Z,75.57
2018-03-25T07:13:14.712Z,75.38
2018-03-25T07:14:14.695Z,75.38
2018-03-25T07:15:14.687Z,75.09
2018-03-25T07:16:14.682Z,75.19
2018-03-25T07:17:14.675Z,75.09
2018-03-25T07:18:14.671Z,75.09
2018-03-25T07:19:14.962Z,75.09
2018-03-25T07:20:14.655Z,74.62
2018-03-25T07:21:14.658Z,74.52
2018-03-25T07:22:14.646Z,74.15
2018-03-25T07:23:14.635Z,73.38
2018-03-25T07:24:14.629Z,73.90
2018-03-25T07:25:14.622Z,74.66
2018-03-25T07:26:14.617Z,73.90
2018-03-25T07:27:14.612Z,74.37
2018-03-25T07:28:14.603Z,73.90
2018-03-25T07:29:14.598Z,73.14
2018-03-25T07:30:14.620Z,73.38
2018-03-25T07:31:14.588Z,73.48
2018-03-25T07:32:14.585Z,73.38
2018-03-25T07:33:14.572Z,74.05
2018-03-25T07:34:14.566Z,74.05
2018-03-25T07:35:14.560Z,74.52
2018-03-25T07:36:14.553Z,74.05
2018-03-25T07:37:14.548Z,74.24
2018-03-25T07:38:14.542Z,73.42
2018-03-25T07:39:14.540Z,73.71
2018-03-25T07:40:14.527Z,73.33
2018-03-25T07:41:14.523Z,72.85
2018-03-25T07:42:14.518Z,73.42
2018-03-25T07:43:15.067Z,72.75
2018-03-25T07:44:14.504Z,72.75
2018-03-25T07:45:14.500Z,72.66
2018-03-25T07:46:14.495Z,71.90
2018-03-25T07:47:14.487Z,71.90
2018-03-25T07:48:14.481Z,71.71
2018-03-25T07:49:14.475Z,72.85
2018-03-25T07:50:14.477Z,72.85
2018-03-25T07:51:14.465Z,71.90
2018-03-25T07:52:14.457Z,72.38
2018-03-25T07:53:14.452Z,72.09
2018-03-25T07:54:14.446Z,72.19
2018-03-25T07:55:14.440Z,72.19
2018-03-25T07:56:14.435Z,72.28
2018-03-25T07:57:14.429Z,71.62
2018-03-25T07:58:14.423Z,70.67
2018-03-25T07:59:14.418Z,70.57
2018-03-25T08:00:14.415Z,70.67
2018-03-25T08:01:14.406Z,70.86
2018-03-25T08:02:14.401Z,71.04
2018-03-25T08:03:14.395Z,70.95
2018-03-25T08:04:14.389Z,71.14
2018-03-25T08:05:14.383Z,70.61
2018-03-25T08:06:14.379Z,70.79
2018-03-25T08:07:14.372Z,70.51
2018-03-25T08:08:14.388Z,70.89
2018-03-25T08:09:14.422Z,70.29
2018-03-25T08:10:14.356Z,69.81
2018-03-25T08:11:14.359Z,69.91
2018-03-25T08:12:14.345Z,70.67
2018-03-25T08:13:14.339Z,70.57
2018-03-25T08:14:14.334Z,70.51
2018-03-25T08:15:14.328Z,70.32
2018-03-25T08:16:14.337Z,70.51
2018-03-25T08:17:14.319Z,70.13
2018-03-25T08:18:14.311Z,69.46
2018-03-25T08:19:14.306Z,69.66
2018-03-25T08:20:14.302Z,69.66
2018-03-25T08:21:14.296Z,69.18
2018-03-25T08:22:14.292Z,69.37
2018-03-25T08:23:14.285Z,69.75
2018-03-25T08:24:14.280Z,69.37
2018-03-25T08:25:14.275Z,69.46
2018-03-25T08:26:14.269Z,69.94
2018-03-25T08:27:14.263Z,70.04
2018-03-25T08:28:14.258Z,69.75
2018-03-25T08:29:14.254Z,70.89
2018-03-25T08:30:14.249Z,70.32
2018-03-25T08:31:14.243Z,70.32
2018-03-25T08:32:14.237Z,70.04
2018-03-25T08:33:14.232Z,69.66
2018-03-25T08:34:14.227Z,69.66
2018-03-25T08:35:14.222Z,69.85
2018-03-25T08:36:14.222Z,69.66
2018-03-25T08:37:14.212Z,69.37
2018-03-25T08:38:14.206Z,69.66
2018-03-25T08:39:14.201Z,69.75
2018-03-25T08:40:14.201Z,69.85
2018-03-25T08:41:14.190Z,69.85
2018-03-25T08:42:14.188Z,69.94
2018-03-25T08:43:14.181Z,70.07
2018-03-25T08:44:14.177Z,69.88
2018-03-25T08:45:14.172Z,68.84
2018-03-25T08:46:14.166Z,68.74
2018-03-25T08:47:14.161Z,68.55
2018-03-25T08:48:14.156Z,68.33
2018-03-25T08:49:14.151Z,69.56
2018-03-25T08:50:14.147Z,68.71
2018-03-25T08:51:14.145Z,68.99
2018-03-25T08:52:14.135Z,69.31
2018-03-25T08:53:14.132Z,69.41
2018-03-25T08:54:14.128Z,68.65
2018-03-25T08:55:14.228Z,67.98
2018-03-25T08:56:14.116Z,67.88
2018-03-25T08:57:14.112Z,67.88
2018-03-25T08:58:14.107Z,67.60
2018-03-25T08:59:14.101Z,67.98
2018-03-25T09:00:14.097Z,67.60
2018-03-25T09:01:14.094Z,66.94
2018-03-25T09:02:14.088Z,66.65
2018-03-25T09:03:14.083Z,67.13
2018-03-25T09:04:14.078Z,67.50
2018-03-25T09:05:14.074Z,67.16
2018-03-25T09:06:14.069Z,67.25
2018-03-25T09:07:14.314Z,66.59
2018-03-25T09:08:14.063Z,66.84
2018-03-25T09:09:14.058Z,66.17
2018-03-25T09:10:14.051Z,66.65
2018-03-25T09:11:14.046Z,66.55
2018-03-25T09:12:14.042Z,66.08
2018-03-25T09:13:14.039Z,66.11
2018-03-25T09:14:14.034Z,66.11
2018-03-25T09:15:14.033Z,66.20
2018-03-25T09:16:14.028Z,65.73
2018-03-25T09:17:14.021Z,65.92
2018-03-25T09:18:14.023Z,65.92
2018-03-25T09:19:14.011Z,65.83
2018-03-25T09:20:14.007Z,65.54
2018-03-25T09:21:14.005Z,64.97
2018-03-25T09:22:14.005Z,63.45
2018-03-25T09:23:13.993Z,64.59
2018-03-25T09:24:13.990Z,63.83
2018-03-25T09:25:13.986Z,63.83
2018-03-25T09:26:13.982Z,63.26
2018-03-25T09:27:13.977Z,63.54
2018-03-25T09:28:13.975Z,63.64
2018-03-25T09:29:13.976Z,63.64
2018-03-25T09:30:14.021Z,63.73
2018-03-25T09:31:14.062Z,64.31
2018-03-25T09:32:13.957Z,63.54
2018-03-25T09:33:13.953Z,63.83
2018-03-25T09:34:13.949Z,64.43
2018-03-25T09:35:13.944Z,63.76
2018-03-25T09:36:13.942Z,63.76
2018-03-25T09:37:13.974Z,64.15
2018-03-25T09:38:13.933Z,63.07
2018-03-25T09:39:13.961Z,63.73
2018-03-25T09:40:13.934Z,64.31
2018-03-25T09:41:13.929Z,64.15
2018-03-25T09:42:13.929Z,63.39
2018-03-25T09:43:13.937Z,63.67
2018-03-25T09:44:13.908Z,63.39
2018-03-25T09:45:13.906Z,63.76
2018-03-25T09:46:13.904Z,63.39
2018-03-25T09:47:13.901Z,63.57
2018-03-25T09:48:13.894Z,63.20
2018-03-25T09:49:13.889Z,63.26
2018-03-25T09:50:13.890Z,63.86
2018-03-25T09:51:13.883Z,63.73
2018-03-25T09:52:13.881Z,63.64
2018-03-25T09:53:13.876Z,63.54
2018-03-25T09:54:13.872Z,64.11
2018-03-25T09:55:13.867Z,63.45
2018-03-25T09:56:13.864Z,63.96
2018-03-25T09:57:13.859Z,63.54
2018-03-25T09:58:13.856Z,63.86
2018-03-25T09:59:13.853Z,63.76
2018-03-25T10:00:13.851Z,64.62
2018-03-25T10:01:13.845Z,63.86
2018-03-25T10:02:13.841Z,63.67
2018-03-25T10:03:13.837Z,63.48
2018-03-25T10:04:13.833Z,62.91
2018-03-25T10:05:13.830Z,63.96
2018-03-25T10:06:13.826Z,63.96
2018-03-25T10:07:13.827Z,63.20
2018-03-25T10:08:13.818Z,63.48
2018-03-25T10:09:13.815Z,63.67
2018-03-25T10:10:13.811Z,63.76
2018-03-25T10:11:13.806Z,63.29
2018-03-25T10:12:13.803Z,63.13
2018-03-25T10:13:13.800Z,63.04
2018-03-25T10:14:13.801Z,62.94
2018-03-25T10:15:13.791Z,62.91
2018-03-25T10:16:13.788Z,63.32
2018-03-25T10:17:13.784Z,62.85
2018-03-25T10:18:13.781Z,62.27
2018-03-25T10:19:13.776Z,61.70
2018-03-25T10:20:13.774Z,62.37
2018-03-25T10:21:13.771Z,61.99
2018-03-25T10:22:13.768Z,61.61
2018-03-25T10:23:13.763Z,61.42
2018-03-25T10:24:13.760Z,60.94
2018-03-25T10:25:13.757Z,61.25
2018-03-25T10:26:13.754Z,61.07
2018-03-25T10:27:13.750Z,60.49
2018-03-25T10:28:13.754Z,60.49
2018-03-25T10:29:13.744Z,60.69
2018-03-25T10:30:13.746Z,60.40
2018-03-25T10:31:13.737Z,60.78
2018-03-25T10:32:13.734Z,59.95
2018-03-25T10:33:13.732Z,59.67
2018-03-25T10:34:13.729Z,59.09
2018-03-25T10:35:13.725Z,59.09
2018-03-25T10:36:13.724Z,58.84
2018-03-25T10:37:13.720Z,58.55
2018-03-25T10:38:13.719Z,57.60
2018-03-25T10:39:13.715Z,57.57
2018-03-25T10:40:13.712Z,58.24
2018-03-25T10:41:13.710Z,57.95
2018-03-25T10:42:13.713Z,58.14
2018-03-25T10:43:13.704Z,59.00
2018-03-25T10:44:13.704Z,59.28
2018-03-25T10:45:13.702Z,59.09
2018-03-25T10:46:13.702Z,58.26
2018-03-25T10:47:13.698Z,58.46
2018-03-25T10:48:13.696Z,58.26
2018-03-25T10:49:13.693Z,56.10
2018-03-25T10:50:13.693Z,55.31
2018-03-25T10:51:13.690Z,56.17
2018-03-25T10:52:13.689Z,56.65
2018-03-25T10:53:13.688Z,55.24
2018-03-25T10:54:13.688Z,55.24
2018-03-25T10:55:13.685Z,55.34
2018-03-25T10:56:13.683Z,54.96
2018-03-25T10:57:13.682Z,54.55
2018-03-25T10:58:13.681Z,55.02
2018-03-25T10:59:13.679Z,54.64
2018-03-25T11:00:13.679Z,54.90
2018-03-25T11:01:13.777Z,55.00
2018-03-25T11:02:13.680Z,54.83
2018-03-25T11:03:13.675Z,55.31
2018-03-25T11:04:13.678Z,55.12
2018-03-25T11:05:13.673Z,54.55
2018-03-25T11:06:13.671Z,55.50
2018-03-25T11:07:13.669Z,53.88
2018-03-25T11:08:13.667Z,53.59
2018-03-25T11:09:13.667Z,53.81
2018-03-25T11:10:13.678Z,53.91
2018-03-25T11:11:13.664Z,53.72
2018-03-25T11:12:13.665Z,53.21
2018-03-25T11:13:13.664Z,53.12
2018-03-25T11:14:13.662Z,53.78
2018-03-25T11:15:13.660Z,53.88
2018-03-25T11:16:13.658Z,54.19
2018-03-25T11:17:13.658Z,53.62
2018-03-25T11:18:13.657Z,53.33
2018-03-25T11:19:13.655Z,53.14
2018-03-25T11:20:13.653Z,53.33
2018-03-25T11:21:13.653Z,53.91
2018-03-25T11:22:13.651Z,53.72
2018-03-25T11:23:13.649Z,53.53
2018-03-25T11:24:13.650Z,53.65
2018-03-25T11:25:13.648Z,53.33
2018-03-25T11:26:13.660Z,53.33
2018-03-25T11:27:13.645Z,53.43
2018-03-25T11:28:13.647Z,53.24
2018-03-25T11:29:13.645Z,53.12
2018-03-25T11:30:13.643Z,53.14
2018-03-25T11:31:13.641Z,52.28
2018-03-25T11:32:13.642Z,52.76
2018-03-25T11:33:13.640Z,52.38
2018-03-25T11:34:13.639Z,52.67
2018-03-25T11:35:13.637Z,52.76
2018-03-25T11:36:13.636Z,50.95
2018-03-25T11:37:13.634Z,51.04
2018-03-25T11:38:13.634Z,50.85
2018-03-25T11:39:13.634Z,51.81
2018-03-25T11:40:13.647Z,51.71
2018-03-25T11:41:13.634Z,51.17
2018-03-25T11:42:13.629Z,50.69
2018-03-25T11:43:13.628Z,50.71
2018-03-25T11:44:13.626Z,50.90
2018-03-25T11:45:13.626Z,50.71
2018-03-25T11:46:13.625Z,50.14
2018-03-25T11:47:13.623Z,50.14
2018-03-25T11:48:13.622Z,48.54
2018-03-25T11:49:13.622Z,48.16
2018-03-25T11:50:13.621Z,46.34
2018-03-25T11:51:13.621Z,46.63
2018-03-25T11:52:13.624Z,46.92
2018-03-25T11:53:13.670Z,46.34
2018-03-25T11:54:13.626Z,46.34
2018-03-25T11:55:13.621Z,45.96
2018-03-25T11:56:13.621Z,46.70
2018-03-25T11:57:13.622Z,47.16
2018-03-25T11:58:13.622Z,46.97
2018-03-25T11:59:13.621Z,46.20
2018-03-25T12:00:13.625Z,46.48
2018-03-25T12:01:13.622Z,48.11
2018-03-25T12:02:13.624Z,47.56
2018-03-25T12:03:13.622Z,47.47
2018-03-25T12:04:13.623Z,47.66
2018-03-25T12:05:13.624Z,47.94
2018-03-25T12:06:13.624Z,47.97
2018-03-25T12:07:13.624Z,46.82
2018-03-25T12:08:13.625Z,45.96
2018-03-25T12:09:13.626Z,45.03
2018-03-25T12:10:13.626Z,43.21
2018-03-25T12:11:13.676Z,42.07
2018-03-25T12:12:13.628Z,41.97
2018-03-25T12:13:13.629Z,42.44
2018-03-25T12:14:13.641Z,42.24
2018-03-25T12:15:13.633Z,42.81
2018-03-25T12:16:13.634Z,42.79
2018-03-25T12:17:13.633Z,42.79
2018-03-25T12:18:13.633Z,43.36
2018-03-25T12:19:13.634Z,43.95
2018-03-25T12:20:13.639Z,43.95
2018-03-25T12:21:13.643Z,43.66
2018-03-25T12:22:13.639Z,42.93
2018-03-25T12:23:13.640Z,42.44
2018-03-25T12:24:13.641Z,42.27
2018-03-25T12:25:13.643Z,40.26
2018-03-25T12:26:13.645Z,39.45
2018-03-25T12:27:13.653Z,39.54
2018-03-25T12:28:13.651Z,39.72
2018-03-25T12:29:13.651Z,40.26
2018-03-25T12:30:13.653Z,40.84
2018-03-25T12:31:13.755Z,41.30
2018-03-25T12:32:13.669Z,42.71
2018-03-25T12:33:13.702Z,44.70
2018-03-25T12:34:13.663Z,44.98
2018-03-25T12:35:13.664Z,45.46
2018-03-25T12:36:13.666Z,46.11
2018-03-25T12:37:13.668Z,46.70
2018-03-25T12:38:13.671Z,46.39
2018-03-25T12:39:13.673Z,46.51
2018-03-25T12:40:13.675Z,46.32
2018-03-25T12:41:13.677Z,46.42
2018-03-25T12:42:13.679Z,46.89
2018-03-25T12:43:13.680Z,46.48
2018-03-25T12:44:13.682Z,46.48
2018-03-25T12:45:13.684Z,46.77
2018-03-25T12:46:13.685Z,46.39
2018-03-25T12:47:13.685Z,46.97
2018-03-25T12:48:13.686Z,46.97
2018-03-25T12:49:13.687Z,46.87
2018-03-25T12:50:13.693Z,46.99
2018-03-25T12:51:13.689Z,47.18
2018-03-25T12:52:13.702Z,46.77